sensor_id;sensor_type;location;lat;lon;timestamp;pressure;altitude;pressure_sealevel;temperature;humidity
38718;BME280;24468;52.128;9.278;2023-03-03T00:01:26;101510.19;;;3.41;100.00
38718;BME280;24468;52.128;9.278;2023-03-03T00:03:53;101512.84;;;3.58;100.00
38718;BME280;24468;52.128;9.278;2023-03-03T00:06:19;101515.22;;;2.38;100.00
38718;BME280;24468;52.128;9.278;2023-03-03T00:08:45;101512.75;;;2.87;100.00
38718;BME280;24468;52.128;9.278;2023-03-03T00:11:11;101509.09;;;2.50;100.00
38718;BME280;24468;52.128;9.278;2023-03-03T00:13:49;101510.81;;;2.42;100.00
38718;BME280;24468;52.128;9.278;2023-03-03T00:18:55;101502.97;;;2.85;100.00
38718;BME280;24468;52.128;9.278;2023-03-03T00:21:40;101515.38;;;2.78;100.00
38718;BME280;24468;52.128;9.278;2023-03-03T00:24:34;101503.84;;;2.87;100.00
38718;BME280;24468;52.128;9.278;2023-03-03T00:27:16;101510.00;;;2.60;100.00
38718;BME280;24468;52.128;9.278;2023-03-03T00:29:51;101518.09;;;2.89;100.00
38718;BME280;24468;52.128;9.278;2023-03-03T00:35:32;101506.59;;;3.13;100.00
38718;BME280;24468;52.128;9.278;2023-03-03T00:38:09;101512.63;;;2.52;100.00
38718;BME280;24468;52.128;9.278;2023-03-03T00:40:39;101509.13;;;2.61;100.00
38718;BME280;24468;52.128;9.278;2023-03-03T00:43:23;101490.50;;;2.76;100.00
38718;BME280;24468;52.128;9.278;2023-03-03T00:45:56;101499.38;;;2.74;100.00
38718;BME280;24468;52.128;9.278;2023-03-03T00:48:31;101498.50;;;2.79;100.00
38718;BME280;24468;52.128;9.278;2023-03-03T00:51:27;101495.69;;;2.41;100.00
38718;BME280;24468;52.128;9.278;2023-03-03T00:53:54;101509.00;;;2.32;100.00
38718;BME280;24468;52.128;9.278;2023-03-03T00:56:20;101512.28;;;1.91;100.00
38718;BME280;24468;52.128;9.278;2023-03-03T00:58:45;101499.91;;;1.97;100.00
38718;BME280;24468;52.128;9.278;2023-03-03T01:01:14;101506.16;;;2.06;100.00
38718;BME280;24468;52.128;9.278;2023-03-03T01:03:39;101513.44;;;2.36;100.00
38718;BME280;24468;52.128;9.278;2023-03-03T01:06:06;101520.16;;;1.71;100.00
38718;BME280;24468;52.128;9.278;2023-03-03T01:08:32;101511.13;;;1.52;100.00
38718;BME280;24468;52.128;9.278;2023-03-03T01:11:03;101515.88;;;1.93;100.00
38718;BME280;24468;52.128;9.278;2023-03-03T01:13:33;101516.81;;;2.04;100.00
38718;BME280;24468;52.128;9.278;2023-03-03T01:16:01;101512.47;;;2.17;100.00
38718;BME280;24468;52.128;9.278;2023-03-03T01:18:28;101516.94;;;2.19;100.00
38718;BME280;24468;52.128;9.278;2023-03-03T01:20:53;101517.06;;;2.52;100.00
38718;BME280;24468;52.128;9.278;2023-03-03T01:23:19;101517.97;;;2.55;100.00
38718;BME280;24468;52.128;9.278;2023-03-03T01:25:44;101529.34;;;2.17;100.00
38718;BME280;24468;52.128;9.278;2023-03-03T01:28:10;101524.84;;;2.10;100.00
38718;BME280;24468;52.128;9.278;2023-03-03T01:30:36;101536.00;;;1.57;100.00
38718;BME280;24468;52.128;9.278;2023-03-03T01:33:02;101534.03;;;1.36;100.00
38718;BME280;24468;52.128;9.278;2023-03-03T01:35:28;101537.41;;;1.18;100.00
38718;BME280;24468;52.128;9.278;2023-03-03T01:37:54;101540.84;;;1.08;100.00
38718;BME280;24468;52.128;9.278;2023-03-03T01:40:27;101526.75;;;1.17;100.00
38718;BME280;24468;52.128;9.278;2023-03-03T01:42:53;101524.03;;;1.12;100.00
38718;BME280;24468;52.128;9.278;2023-03-03T01:45:26;101522.31;;;1.17;100.00
38718;BME280;24468;52.128;9.278;2023-03-03T01:48:05;101529.38;;;1.14;100.00
38718;BME280;24468;52.128;9.278;2023-03-03T01:53:18;101531.06;;;1.04;100.00
38718;BME280;24468;52.128;9.278;2023-03-03T01:55:45;101523.34;;;1.31;100.00
38718;BME280;24468;52.128;9.278;2023-03-03T01:58:28;101524.31;;;1.38;100.00
38718;BME280;24468;52.128;9.278;2023-03-03T02:01:03;101511.84;;;1.34;100.00
38718;BME280;24468;52.128;9.278;2023-03-03T02:03:30;101526.97;;;1.38;100.00
38718;BME280;24468;52.128;9.278;2023-03-03T02:06:00;101529.22;;;0.98;100.00
38718;BME280;24468;52.128;9.278;2023-03-03T02:08:43;101522.16;;;1.00;100.00
38718;BME280;24468;52.128;9.278;2023-03-03T02:11:12;101528.38;;;1.01;100.00
38718;BME280;24468;52.128;9.278;2023-03-03T02:13:39;101523.94;;;1.00;100.00
38718;BME280;24468;52.128;9.278;2023-03-03T02:16:05;101525.69;;;0.96;100.00
38718;BME280;24468;52.128;9.278;2023-03-03T02:18:31;101522.06;;;0.91;100.00
38718;BME280;24468;52.128;9.278;2023-03-03T02:21:18;101517.91;;;1.16;100.00
38718;BME280;24468;52.128;9.278;2023-03-03T02:26:31;101523.97;;;1.03;100.00
38718;BME280;24468;52.128;9.278;2023-03-03T02:28:58;101536.28;;;0.95;100.00
38718;BME280;24468;52.128;9.278;2023-03-03T02:31:28;101535.38;;;0.96;100.00
38718;BME280;24468;52.128;9.278;2023-03-03T02:33:54;101531.19;;;1.18;100.00
38718;BME280;24468;52.128;9.278;2023-03-03T02:36:27;101526.91;;;1.33;100.00
38718;BME280;24468;52.128;9.278;2023-03-03T02:39:23;101526.25;;;1.58;100.00
38718;BME280;24468;52.128;9.278;2023-03-03T02:42:15;101525.13;;;1.34;100.00
38718;BME280;24468;52.128;9.278;2023-03-03T02:44:43;101524.19;;;1.24;100.00
38718;BME280;24468;52.128;9.278;2023-03-03T02:47:08;101526.00;;;1.31;100.00
38718;BME280;24468;52.128;9.278;2023-03-03T02:49:35;101526.84;;;1.24;100.00
38718;BME280;24468;52.128;9.278;2023-03-03T02:52:04;101515.44;;;1.39;100.00
38718;BME280;24468;52.128;9.278;2023-03-03T02:54:30;101510.25;;;1.51;100.00
38718;BME280;24468;52.128;9.278;2023-03-03T02:56:57;101508.38;;;1.41;100.00
38718;BME280;24468;52.128;9.278;2023-03-03T02:59:23;101502.72;;;1.06;100.00
38718;BME280;24468;52.128;9.278;2023-03-03T03:01:49;101509.75;;;0.96;100.00
38718;BME280;24468;52.128;9.278;2023-03-03T03:04:21;101515.25;;;1.16;100.00
38718;BME280;24468;52.128;9.278;2023-03-03T03:06:47;101503.91;;;1.39;100.00
38718;BME280;24468;52.128;9.278;2023-03-03T03:09:14;101506.59;;;1.40;100.00
38718;BME280;24468;52.128;9.278;2023-03-03T03:11:41;101503.09;;;1.44;100.00
38718;BME280;24468;52.128;9.278;2023-03-03T03:14:08;101505.88;;;1.61;100.00
38718;BME280;24468;52.128;9.278;2023-03-03T03:16:35;101508.63;;;1.73;100.00
38718;BME280;24468;52.128;9.278;2023-03-03T03:19:01;101514.03;;;1.81;100.00
38718;BME280;24468;52.128;9.278;2023-03-03T03:21:28;101520.75;;;1.38;100.00
38718;BME280;24468;52.128;9.278;2023-03-03T03:23:54;101523.53;;;1.51;100.00
38718;BME280;24468;52.128;9.278;2023-03-03T03:26:20;101521.84;;;1.64;100.00
38718;BME280;24468;52.128;9.278;2023-03-03T03:28:47;101523.59;;;1.58;100.00
38718;BME280;24468;52.128;9.278;2023-03-03T03:31:14;101518.97;;;1.40;100.00
38718;BME280;24468;52.128;9.278;2023-03-03T03:33:39;101529.56;;;1.32;100.00
38718;BME280;24468;52.128;9.278;2023-03-03T03:36:06;101525.94;;;1.21;100.00
38718;BME280;24468;52.128;9.278;2023-03-03T03:38:33;101526.91;;;1.29;100.00
38718;BME280;24468;52.128;9.278;2023-03-03T03:41:01;101523.22;;;1.18;100.00
38718;BME280;24468;52.128;9.278;2023-03-03T03:43:26;101526.09;;;1.38;100.00
38718;BME280;24468;52.128;9.278;2023-03-03T03:45:52;101527.66;;;1.16;100.00
38718;BME280;24468;52.128;9.278;2023-03-03T03:48:18;101528.44;;;1.08;100.00
38718;BME280;24468;52.128;9.278;2023-03-03T03:50:46;101532.81;;;1.03;100.00
38718;BME280;24468;52.128;9.278;2023-03-03T03:53:12;101528.34;;;0.98;100.00
38718;BME280;24468;52.128;9.278;2023-03-03T03:55:37;101523.84;;;0.91;100.00
38718;BME280;24468;52.128;9.278;2023-03-03T03:58:03;101518.53;;;0.91;100.00
38718;BME280;24468;52.128;9.278;2023-03-03T04:00:29;101516.72;;;0.88;100.00
38718;BME280;24468;52.128;9.278;2023-03-03T04:02:55;101516.75;;;0.91;100.00
38718;BME280;24468;52.128;9.278;2023-03-03T04:05:20;101505.41;;;1.07;100.00
38718;BME280;24468;52.128;9.278;2023-03-03T04:07:46;101516.56;;;0.76;100.00
38718;BME280;24468;52.128;9.278;2023-03-03T04:10:11;101521.66;;;0.57;100.00
38718;BME280;24468;52.128;9.278;2023-03-03T04:12:37;101526.25;;;0.69;100.00
38718;BME280;24468;52.128;9.278;2023-03-03T04:15:12;101526.19;;;0.64;100.00
38718;BME280;24468;52.128;9.278;2023-03-03T04:17:38;101526.97;;;0.57;100.00
38718;BME280;24468;52.128;9.278;2023-03-03T04:20:06;101519.16;;;0.71;100.00
38718;BME280;24468;52.128;9.278;2023-03-03T04:22:32;101525.34;;;0.69;100.00
38718;BME280;24468;52.128;9.278;2023-03-03T04:25:03;101523.56;;;0.68;100.00
38718;BME280;24468;52.128;9.278;2023-03-03T04:27:31;101522.97;;;0.92;100.00
38718;BME280;24468;52.128;9.278;2023-03-03T04:29:57;101527.34;;;0.89;100.00
38718;BME280;24468;52.128;9.278;2023-03-03T04:32:22;101532.22;;;0.50;100.00
38718;BME280;24468;52.128;9.278;2023-03-03T04:34:48;101525.81;;;0.35;100.00
38718;BME280;24468;52.128;9.278;2023-03-03T04:37:13;101534.59;;;0.28;100.00
38718;BME280;24468;52.128;9.278;2023-03-03T04:39:39;101532.78;;;0.27;100.00
38718;BME280;24468;52.128;9.278;2023-03-03T04:42:05;101536.41;;;0.31;100.00
38718;BME280;24468;52.128;9.278;2023-03-03T04:44:30;101541.50;;;0.17;100.00
38718;BME280;24468;52.128;9.278;2023-03-03T04:46:56;101541.34;;;0.08;100.00
38718;BME280;24468;52.128;9.278;2023-03-03T04:49:21;101547.38;;;-0.04;100.00
38718;BME280;24468;52.128;9.278;2023-03-03T04:51:47;101559.25;;;0.19;100.00
38718;BME280;24468;52.128;9.278;2023-03-03T04:54:13;101565.44;;;0.21;100.00
38718;BME280;24468;52.128;9.278;2023-03-03T04:56:38;101559.31;;;0.27;100.00
38718;BME280;24468;52.128;9.278;2023-03-03T04:59:04;101563.09;;;0.43;100.00
38718;BME280;24468;52.128;9.278;2023-03-03T05:01:29;101556.47;;;0.13;100.00
38718;BME280;24468;52.128;9.278;2023-03-03T05:03:55;101560.91;;;0.13;100.00
38718;BME280;24468;52.128;9.278;2023-03-03T05:06:20;101556.47;;;0.12;100.00
38718;BME280;24468;52.128;9.278;2023-03-03T05:08:46;101565.28;;;0.09;100.00
38718;BME280;24468;52.128;9.278;2023-03-03T05:11:11;101569.56;;;0.03;100.00
38718;BME280;24468;52.128;9.278;2023-03-03T05:13:38;101572.06;;;-0.10;100.00
38718;BME280;24468;52.128;9.278;2023-03-03T05:16:04;101566.94;;;0.03;100.00
38718;BME280;24468;52.128;9.278;2023-03-03T05:18:30;101572.94;;;-0.09;100.00
38718;BME280;24468;52.128;9.278;2023-03-03T05:20:56;101567.69;;;-0.08;100.00
38718;BME280;24468;52.128;9.278;2023-03-03T05:23:22;101567.69;;;-0.08;100.00
38718;BME280;24468;52.128;9.278;2023-03-03T05:25:48;101576.66;;;0.01;100.00
38718;BME280;24468;52.128;9.278;2023-03-03T05:28:14;101577.84;;;0.22;100.00
38718;BME280;24468;52.128;9.278;2023-03-03T05:30:40;101569.94;;;0.26;100.00
38718;BME280;24468;52.128;9.278;2023-03-03T05:33:06;101566.25;;;0.16;100.00
38718;BME280;24468;52.128;9.278;2023-03-03T05:35:32;101575.47;;;0.42;100.00
38718;BME280;24468;52.128;9.278;2023-03-03T05:37:58;101571.19;;;0.52;100.00
38718;BME280;24468;52.128;9.278;2023-03-03T05:40:24;101556.56;;;0.86;100.00
38718;BME280;24468;52.128;9.278;2023-03-03T05:42:50;101559.22;;;0.86;100.00
38718;BME280;24468;52.128;9.278;2023-03-03T05:45:18;101559.09;;;0.76;100.00
38718;BME280;24468;52.128;9.278;2023-03-03T05:47:49;101552.22;;;0.95;100.00
38718;BME280;24468;52.128;9.278;2023-03-03T05:50:16;101545.09;;;0.91;100.00
38718;BME280;24468;52.128;9.278;2023-03-03T05:52:42;101559.25;;;0.89;100.00
38718;BME280;24468;52.128;9.278;2023-03-03T05:55:09;101551.16;;;0.77;100.00
38718;BME280;24468;52.128;9.278;2023-03-03T05:57:34;101552.91;;;0.78;100.00
38718;BME280;24468;52.128;9.278;2023-03-03T06:00:04;101542.38;;;0.87;100.00
38718;BME280;24468;52.128;9.278;2023-03-03T06:02:30;101545.97;;;0.93;100.00
38718;BME280;24468;52.128;9.278;2023-03-03T06:04:56;101547.81;;;0.97;100.00
38718;BME280;24468;52.128;9.278;2023-03-03T06:07:22;101552.22;;;0.95;100.00
38718;BME280;24468;52.128;9.278;2023-03-03T06:09:47;101555.75;;;0.95;100.00
38718;BME280;24468;52.128;9.278;2023-03-03T06:12:13;101562.75;;;0.87;100.00
38718;BME280;24468;52.128;9.278;2023-03-03T06:14:39;101552.31;;;1.02;100.00
38718;BME280;24468;52.128;9.278;2023-03-03T06:17:04;101558.84;;;1.37;100.00
38718;BME280;24468;52.128;9.278;2023-03-03T06:19:30;101547.50;;;1.54;100.00
38718;BME280;24468;52.128;9.278;2023-03-03T06:21:56;101550.28;;;1.68;100.00
38718;BME280;24468;52.128;9.278;2023-03-03T06:24:21;101560.66;;;1.38;100.00
38718;BME280;24468;52.128;9.278;2023-03-03T06:26:50;101571.47;;;1.61;100.00
38718;BME280;24468;52.128;9.278;2023-03-03T06:29:16;101564.63;;;1.90;100.00
38718;BME280;24468;52.128;9.278;2023-03-03T06:31:42;101566.22;;;1.70;100.00
38718;BME280;24468;52.128;9.278;2023-03-03T06:34:08;101569.03;;;0.94;100.00
38718;BME280;24468;52.128;9.278;2023-03-03T06:36:33;101577.16;;;1.09;100.00
38718;BME280;24468;52.128;9.278;2023-03-03T06:38:59;101584.44;;;1.25;100.00
38718;BME280;24468;52.128;9.278;2023-03-03T06:41:25;101591.78;;;1.49;100.00
38718;BME280;24468;52.128;9.278;2023-03-03T06:43:51;101588.94;;;1.34;100.00
38718;BME280;24468;52.128;9.278;2023-03-03T06:46:16;101592.44;;;1.28;100.00
38718;BME280;24468;52.128;9.278;2023-03-03T06:48:42;101598.34;;;1.01;100.00
38718;BME280;24468;52.128;9.278;2023-03-03T06:51:33;101598.09;;;0.81;100.00
38718;BME280;24468;52.128;9.278;2023-03-03T06:54:06;101610.88;;;0.41;100.00
38718;BME280;24468;52.128;9.278;2023-03-03T06:56:36;101611.38;;;0.81;100.00
38718;BME280;24468;52.128;9.278;2023-03-03T06:59:16;101618.91;;;0.49;100.00
38718;BME280;24468;52.128;9.278;2023-03-03T07:01:44;101616.72;;;0.83;100.00
38718;BME280;24468;52.128;9.278;2023-03-03T07:06:44;101602.50;;;1.57;100.00
38718;BME280;24468;52.128;9.278;2023-03-03T07:09:25;101609.81;;;1.81;100.00
38718;BME280;24468;52.128;9.278;2023-03-03T07:11:55;101606.22;;;1.81;100.00
38718;BME280;24468;52.128;9.278;2023-03-03T07:14:21;101608.88;;;1.81;100.00
38718;BME280;24468;52.128;9.278;2023-03-03T07:16:59;101616.06;;;1.88;100.00
38718;BME280;24468;52.128;9.278;2023-03-03T07:19:34;101618.84;;;2.02;100.00
38718;BME280;24468;52.128;9.278;2023-03-03T07:22:21;101620.91;;;1.39;100.00
38718;BME280;24468;52.128;9.278;2023-03-03T07:24:51;101621.91;;;1.48;100.00
38718;BME280;24468;52.128;9.278;2023-03-03T07:27:27;101620.56;;;1.95;100.00
38718;BME280;24468;52.128;9.278;2023-03-03T07:32:47;101635.66;;;1.96;100.00
38718;BME280;24468;52.128;9.278;2023-03-03T07:35:36;101629.50;;;2.03;100.00
38718;BME280;24468;52.128;9.278;2023-03-03T07:40:51;101645.41;;;1.97;100.00
38718;BME280;24468;52.128;9.278;2023-03-03T07:43:39;101646.50;;;2.23;100.00
38718;BME280;24468;52.128;9.278;2023-03-03T07:48:41;101647.41;;;2.22;100.00
38718;BME280;24468;52.128;9.278;2023-03-03T07:51:21;101656.06;;;1.98;100.00
38718;BME280;24468;52.128;9.278;2023-03-03T07:53:50;101659.63;;;1.99;100.00
38718;BME280;24468;52.128;9.278;2023-03-03T07:56:33;101655.03;;;1.83;100.00
38718;BME280;24468;52.128;9.278;2023-03-03T07:59:08;101649.00;;;2.00;100.00
38718;BME280;24468;52.128;9.278;2023-03-03T08:01:43;101652.66;;;2.16;100.00
38718;BME280;24468;52.128;9.278;2023-03-03T08:04:19;101655.22;;;2.04;100.00
38718;BME280;24468;52.128;9.278;2023-03-03T08:06:50;101658.03;;;2.19;100.00
38718;BME280;24468;52.128;9.278;2023-03-03T08:11:55;101654.41;;;2.11;100.00
38718;BME280;24468;52.128;9.278;2023-03-03T08:14:30;101650.94;;;2.25;100.00
38718;BME280;24468;52.128;9.278;2023-03-03T08:16:58;101654.22;;;1.91;100.00
38718;BME280;24468;52.128;9.278;2023-03-03T08:19:24;101654.28;;;1.97;100.00
38718;BME280;24468;52.128;9.278;2023-03-03T08:21:51;101660.59;;;2.10;100.00
38718;BME280;24468;52.128;9.278;2023-03-03T08:24:17;101660.50;;;1.98;100.00
38718;BME280;24468;52.128;9.278;2023-03-03T08:26:42;101651.59;;;1.93;100.00
38718;BME280;24468;52.128;9.278;2023-03-03T08:29:09;101658.22;;;2.49;100.00
38718;BME280;24468;52.128;9.278;2023-03-03T08:31:36;101654.81;;;2.70;100.00
38718;BME280;24468;52.128;9.278;2023-03-03T08:34:01;101661.50;;;2.12;100.00
38718;BME280;24468;52.128;9.278;2023-03-03T08:36:28;101662.75;;;2.65;100.00
38718;BME280;24468;52.128;9.278;2023-03-03T08:38:54;101661.63;;;2.26;100.00
38718;BME280;24468;52.128;9.278;2023-03-03T08:41:19;101654.66;;;2.47;100.00
38718;BME280;24468;52.128;9.278;2023-03-03T08:43:45;101657.22;;;2.31;100.00
38718;BME280;24468;52.128;9.278;2023-03-03T08:46:11;101649.38;;;2.51;100.00
38718;BME280;24468;52.128;9.278;2023-03-03T08:48:37;101651.41;;;2.97;100.00
38718;BME280;24468;52.128;9.278;2023-03-03T08:51:03;101651.91;;;2.34;100.00
38718;BME280;24468;52.128;9.278;2023-03-03T08:53:30;101661.44;;;2.05;100.00
38718;BME280;24468;52.128;9.278;2023-03-03T08:55:58;101660.41;;;1.89;100.00
38718;BME280;24468;52.128;9.278;2023-03-03T08:58:24;101661.56;;;2.17;100.00
38718;BME280;24468;52.128;9.278;2023-03-03T09:00:49;101667.91;;;2.37;100.00
38718;BME280;24468;52.128;9.278;2023-03-03T09:03:15;101664.88;;;1.94;100.00
38718;BME280;24468;52.128;9.278;2023-03-03T09:05:40;101660.75;;;2.30;100.00
38718;BME280;24468;52.128;9.278;2023-03-03T09:08:07;101671.88;;;1.83;100.00
38718;BME280;24468;52.128;9.278;2023-03-03T09:10:35;101670.31;;;2.05;100.00
38718;BME280;24468;52.128;9.278;2023-03-03T09:13:09;101671.53;;;2.49;100.00
38718;BME280;24468;52.128;9.278;2023-03-03T09:15:37;101666.44;;;2.90;100.00
38718;BME280;24468;52.128;9.278;2023-03-03T09:18:17;101669.94;;;2.75;100.00
38718;BME280;24468;52.128;9.278;2023-03-03T09:20:45;101667.56;;;3.38;100.00
38718;BME280;24468;52.128;9.278;2023-03-03T09:23:41;101669.25;;;3.18;100.00
38718;BME280;24468;52.128;9.278;2023-03-03T09:26:29;101664.09;;;3.76;100.00
38718;BME280;24468;52.128;9.278;2023-03-03T09:29:29;101669.25;;;3.19;100.00
38718;BME280;24468;52.128;9.278;2023-03-03T09:32:36;101657.84;;;3.72;100.00
38718;BME280;24468;52.128;9.278;2023-03-03T09:35:36;101662.22;;;3.41;100.00
38718;BME280;24468;52.128;9.278;2023-03-03T09:38:32;101672.84;;;3.21;100.00
38718;BME280;24468;52.128;9.278;2023-03-03T09:41:11;101652.50;;;3.89;100.00
38718;BME280;24468;52.128;9.278;2023-03-03T09:47:00;101671.13;;;3.42;100.00
38718;BME280;24468;52.128;9.278;2023-03-03T09:49:33;101668.53;;;3.71;100.00
38718;BME280;24468;52.128;9.278;2023-03-03T09:52:40;101667.66;;;4.07;100.00
38718;BME280;24468;52.128;9.278;2023-03-03T09:55:34;101665.88;;;4.32;100.00
38718;BME280;24468;52.128;9.278;2023-03-03T10:06:42;101679.22;;;3.83;100.00
38718;BME280;24468;52.128;9.278;2023-03-03T10:12:24;101690.63;;;3.24;100.00
38718;BME280;24468;52.128;9.278;2023-03-03T10:18:46;101684.38;;;3.22;100.00
38718;BME280;24468;52.128;9.278;2023-03-03T10:24:22;101693.16;;;2.98;100.00
38718;BME280;24468;52.128;9.278;2023-03-03T10:38:23;101694.22;;;3.32;100.00
38718;BME280;24468;52.128;9.278;2023-03-03T10:41:39;101692.31;;;3.05;100.00
38718;BME280;24468;52.128;9.278;2023-03-03T10:55:54;101685.47;;;4.51;100.00
38718;BME280;24468;52.128;9.278;2023-03-03T10:58:44;101687.16;;;4.87;100.00
38718;BME280;24468;52.128;9.278;2023-03-03T11:05:17;101687.22;;;3.68;100.00
38718;BME280;24468;52.128;9.278;2023-03-03T11:07:45;101687.19;;;3.60;100.00
38718;BME280;24468;52.128;9.278;2023-03-03T11:10:37;101689.91;;;3.95;100.00
38718;BME280;24468;52.128;9.278;2023-03-03T11:13:53;101678.31;;;3.73;100.00
38718;BME280;24468;52.128;9.278;2023-03-03T11:25:31;101677.44;;;3.88;100.00
38718;BME280;24468;52.128;9.278;2023-03-03T11:31:37;101668.56;;;3.92;100.00
38718;BME280;24468;52.128;9.278;2023-03-03T11:36:47;101663.13;;;4.81;100.00
38718;BME280;24468;52.128;9.278;2023-03-03T11:39:21;101658.59;;;5.06;100.00
38718;BME280;24468;52.128;9.278;2023-03-03T11:42:34;101667.66;;;3.90;100.00
38718;BME280;24468;52.128;9.278;2023-03-03T11:45:18;101664.91;;;3.53;100.00
38718;BME280;24468;52.128;9.278;2023-03-03T11:47:52;101663.19;;;3.68;100.00
38718;BME280;24468;52.128;9.278;2023-03-03T11:50:37;101656.06;;;4.56;100.00
38718;BME280;24468;52.128;9.278;2023-03-03T11:53:37;101659.63;;;4.45;100.00
38718;BME280;24468;52.128;9.278;2023-03-03T11:56:40;101653.38;;;4.59;100.00
38718;BME280;24468;52.128;9.278;2023-03-03T11:59:38;101654.13;;;5.13;100.00
38718;BME280;24468;52.128;9.278;2023-03-03T12:05:51;101643.13;;;5.65;100.00
38718;BME280;24468;52.128;9.278;2023-03-03T12:08:41;101638.91;;;5.20;100.00
38718;BME280;24468;52.128;9.278;2023-03-03T12:11:27;101633.47;;;5.41;100.00
38718;BME280;24468;52.128;9.278;2023-03-03T12:16:50;101625.16;;;5.78;100.00
38718;BME280;24468;52.128;9.278;2023-03-03T12:22:32;101621.13;;;5.09;100.00
38718;BME280;24468;52.128;9.278;2023-03-03T12:30:59;101622.97;;;4.90;100.00
38718;BME280;24468;52.128;9.278;2023-03-03T12:34:19;101611.53;;;4.61;100.00
38718;BME280;24468;52.128;9.278;2023-03-03T12:42:41;101603.06;;;5.48;100.00
38718;BME280;24468;52.128;9.278;2023-03-03T12:45:43;101593.94;;;5.75;100.00
38718;BME280;24468;52.128;9.278;2023-03-03T12:48:40;101600.66;;;5.05;100.00
38718;BME280;24468;52.128;9.278;2023-03-03T13:03:10;101597.34;;;3.97;100.00
38718;BME280;24468;52.128;9.278;2023-03-03T13:06:00;101603.56;;;4.07;100.00
38718;BME280;24468;52.128;9.278;2023-03-03T13:09:13;101596.47;;;4.12;100.00
38718;BME280;24468;52.128;9.278;2023-03-03T13:17:58;101580.41;;;4.11;100.00
38718;BME280;24468;52.128;9.278;2023-03-03T13:24:05;101595.53;;;4.32;100.00
38718;BME280;24468;52.128;9.278;2023-03-03T13:26:55;101585.75;;;4.14;100.00
38718;BME280;24468;52.128;9.278;2023-03-03T13:32:58;101589.28;;;4.43;100.00
38718;BME280;24468;52.128;9.278;2023-03-03T13:35:43;101587.44;;;4.64;100.00
38718;BME280;24468;52.128;9.278;2023-03-03T13:38:23;101585.59;;;4.81;100.00
38718;BME280;24468;52.128;9.278;2023-03-03T13:41:10;101583.94;;;4.43;100.00
38718;BME280;24468;52.128;9.278;2023-03-03T13:44:08;101579.44;;;4.56;100.00
38718;BME280;24468;52.128;9.278;2023-03-03T14:01:56;101563.44;;;4.49;100.00
38718;BME280;24468;52.128;9.278;2023-03-03T14:07:17;101568.91;;;3.84;100.00
38718;BME280;24468;52.128;9.278;2023-03-03T14:10:07;101560.00;;;4.00;100.00
38718;BME280;24468;52.128;9.278;2023-03-03T14:16:08;101558.16;;;4.13;100.00
38718;BME280;24468;52.128;9.278;2023-03-03T14:19:00;101558.06;;;4.55;100.00
38718;BME280;24468;52.128;9.278;2023-03-03T14:21:37;101561.69;;;4.29;100.00
38718;BME280;24468;52.128;9.278;2023-03-03T14:24:20;101557.28;;;4.14;100.00
38718;BME280;24468;52.128;9.278;2023-03-03T14:26:52;101553.69;;;4.31;100.00
38718;BME280;24468;52.128;9.278;2023-03-03T14:31:56;101543.91;;;4.16;100.00
38718;BME280;24468;52.128;9.278;2023-03-03T14:36:49;101542.06;;;4.42;100.00
38718;BME280;24468;52.128;9.278;2023-03-03T14:39:38;101540.34;;;4.21;100.00
38718;BME280;24468;52.128;9.278;2023-03-03T14:42:31;101542.94;;;4.41;100.00
38718;BME280;24468;52.128;9.278;2023-03-03T14:44:58;101525.94;;;4.65;100.00
38718;BME280;24468;52.128;9.278;2023-03-03T14:47:27;101532.25;;;4.49;100.00
38718;BME280;24468;52.128;9.278;2023-03-03T14:49:55;101538.25;;;5.03;100.00
38718;BME280;24468;52.128;9.278;2023-03-03T14:52:29;101521.25;;;5.13;100.00
38718;BME280;24468;52.128;9.278;2023-03-03T14:55:00;101520.34;;;5.16;100.00
38718;BME280;24468;52.128;9.278;2023-03-03T15:05:25;101503.97;;;5.56;100.00
38718;BME280;24468;52.128;9.278;2023-03-03T15:10:43;101491.41;;;6.52;100.00
38718;BME280;24468;52.128;9.278;2023-03-03T15:16:30;101490.25;;;6.75;100.00
38718;BME280;24468;52.128;9.278;2023-03-03T15:26:07;101487.97;;;5.50;100.00
38718;BME280;24468;52.128;9.278;2023-03-03T15:29:21;101487.94;;;6.44;100.00
38718;BME280;24468;52.128;9.278;2023-03-03T15:31:35;101483.28;;;5.75;100.00
38718;BME280;24468;52.128;9.278;2023-03-03T15:36:57;101476.59;;;6.20;100.00
38718;BME280;24468;52.128;9.278;2023-03-03T15:40:02;101466.16;;;6.70;100.00
38718;BME280;24468;52.128;9.278;2023-03-03T15:42:59;101477.09;;;5.70;100.00
38718;BME280;24468;52.128;9.278;2023-03-03T15:52:08;101474.28;;;5.85;100.00
38718;BME280;24468;52.128;9.278;2023-03-03T16:03:34;101456.09;;;6.18;100.00
38718;BME280;24468;52.128;9.278;2023-03-03T16:12:38;101463.56;;;6.62;100.00
38718;BME280;24468;52.128;9.278;2023-03-03T16:15:50;101460.69;;;6.07;100.00
38718;BME280;24468;52.128;9.278;2023-03-03T16:24:42;101450.94;;;7.29;100.00
38718;BME280;24468;52.128;9.278;2023-03-03T16:30:24;101462.31;;;6.88;100.00
38718;BME280;24468;52.128;9.278;2023-03-03T16:33:10;101463.53;;;5.88;100.00
38718;BME280;24468;52.128;9.278;2023-03-03T16:35:53;101469.59;;;6.07;100.00
38718;BME280;24468;52.128;9.278;2023-03-03T16:38:34;101472.44;;;5.93;100.00
38718;BME280;24468;52.128;9.278;2023-03-03T16:41:06;101476.03;;;5.88;100.00
38718;BME280;24468;52.128;9.278;2023-03-03T16:44:11;101469.91;;;5.76;100.00
38718;BME280;24468;52.128;9.278;2023-03-03T16:46:49;101474.44;;;5.68;100.00
38718;BME280;24468;52.128;9.278;2023-03-03T16:49:47;101471.03;;;5.49;100.00
38718;BME280;24468;52.128;9.278;2023-03-03T16:52:18;101471.22;;;5.23;100.00
38718;BME280;24468;52.128;9.278;2023-03-03T16:55:02;101466.63;;;5.42;100.00
38718;BME280;24468;52.128;9.278;2023-03-03T16:57:58;101465.63;;;5.55;100.00
38718;BME280;24468;52.128;9.278;2023-03-03T17:00:29;101466.75;;;5.30;100.00